sensor_id;sensor_type;location;lat;lon;timestamp;temperature;humidity
12704;DHT22;6416;52.182;7.650;2022-10-16T00:00:35;16.00;72.40
12704;DHT22;6416;52.182;7.650;2022-10-16T00:03:01;16.00;72.60
12704;DHT22;6416;52.182;7.650;2022-10-16T00:05:27;16.00;72.60
12704;DHT22;6416;52.182;7.650;2022-10-16T00:07:52;16.00;72.70
12704;DHT22;6416;52.182;7.650;2022-10-16T00:10:18;16.00;72.80
12704;DHT22;6416;52.182;7.650;2022-10-16T00:12:43;16.00;72.80
12704;DHT22;6416;52.182;7.650;2022-10-16T00:15:09;16.00;72.90
12704;DHT22;6416;52.182;7.650;2022-10-16T00:17:34;16.00;72.90
12704;DHT22;6416;52.182;7.650;2022-10-16T00:20:00;15.90;72.90
12704;DHT22;6416;52.182;7.650;2022-10-16T00:22:25;15.90;72.90
12704;DHT22;6416;52.182;7.650;2022-10-16T00:24:51;15.90;72.90
12704;DHT22;6416;52.182;7.650;2022-10-16T00:27:17;15.90;72.90
12704;DHT22;6416;52.182;7.650;2022-10-16T00:29:43;15.90;73.00
12704;DHT22;6416;52.182;7.650;2022-10-16T00:32:08;15.90;73.10
12704;DHT22;6416;52.182;7.650;2022-10-16T00:34:34;15.80;73.00
12704;DHT22;6416;52.182;7.650;2022-10-16T00:36:59;15.80;73.00
12704;DHT22;6416;52.182;7.650;2022-10-16T00:39:28;15.80;73.10
12704;DHT22;6416;52.182;7.650;2022-10-16T00:41:53;15.80;73.30
12704;DHT22;6416;52.182;7.650;2022-10-16T00:44:48;15.70;73.20
12704;DHT22;6416;52.182;7.650;2022-10-16T00:47:24;15.70;73.80
12704;DHT22;6416;52.182;7.650;2022-10-16T00:49:59;15.70;73.50
12704;DHT22;6416;52.182;7.650;2022-10-16T00:52:25;15.70;73.40
12704;DHT22;6416;52.182;7.650;2022-10-16T00:54:52;15.70;73.40
12704;DHT22;6416;52.182;7.650;2022-10-16T00:57:18;15.70;73.60
12704;DHT22;6416;52.182;7.650;2022-10-16T00:59:45;15.60;73.80
12704;DHT22;6416;52.182;7.650;2022-10-16T01:02:13;15.60;73.50
12704;DHT22;6416;52.182;7.650;2022-10-16T01:04:50;15.60;73.70
12704;DHT22;6416;52.182;7.650;2022-10-16T01:10:07;15.50;73.70
12704;DHT22;6416;52.182;7.650;2022-10-16T01:15:37;15.50;74.70
12704;DHT22;6416;52.182;7.650;2022-10-16T01:20:31;15.50;74.00
12704;DHT22;6416;52.182;7.650;2022-10-16T01:23:15;15.40;74.10
12704;DHT22;6416;52.182;7.650;2022-10-16T01:26:09;15.50;74.30
12704;DHT22;6416;52.182;7.650;2022-10-16T01:31:11;15.40;74.50
12704;DHT22;6416;52.182;7.650;2022-10-16T01:33:43;15.40;74.50
12704;DHT22;6416;52.182;7.650;2022-10-16T01:36:16;15.40;74.70
12704;DHT22;6416;52.182;7.650;2022-10-16T01:38:46;15.40;74.90
12704;DHT22;6416;52.182;7.650;2022-10-16T01:41:24;15.40;75.00
12704;DHT22;6416;52.182;7.650;2022-10-16T01:44:22;15.40;75.30
12704;DHT22;6416;52.182;7.650;2022-10-16T01:46:50;15.40;75.80
12704;DHT22;6416;52.182;7.650;2022-10-16T01:49:17;15.40;75.30
12704;DHT22;6416;52.182;7.650;2022-10-16T01:51:47;15.40;75.40
12704;DHT22;6416;52.182;7.650;2022-10-16T01:54:14;15.40;75.50
12704;DHT22;6416;52.182;7.650;2022-10-16T01:56:42;15.40;76.20
12704;DHT22;6416;52.182;7.650;2022-10-16T01:59:13;15.40;75.50
12704;DHT22;6416;52.182;7.650;2022-10-16T02:01:42;15.40;75.90
12704;DHT22;6416;52.182;7.650;2022-10-16T02:04:15;15.40;75.80
12704;DHT22;6416;52.182;7.650;2022-10-16T02:06:41;15.40;75.90
12704;DHT22;6416;52.182;7.650;2022-10-16T02:09:07;15.40;75.70
12704;DHT22;6416;52.182;7.650;2022-10-16T02:11:32;15.40;75.70
12704;DHT22;6416;52.182;7.650;2022-10-16T02:14:01;15.40;75.70
12704;DHT22;6416;52.182;7.650;2022-10-16T02:19:03;15.40;76.20
12704;DHT22;6416;52.182;7.650;2022-10-16T02:21:54;15.40;75.90
12704;DHT22;6416;52.182;7.650;2022-10-16T02:27:25;15.40;76.20
12704;DHT22;6416;52.182;7.650;2022-10-16T02:30:13;15.30;76.30
12704;DHT22;6416;52.182;7.650;2022-10-16T02:32:42;15.30;76.50
12704;DHT22;6416;52.182;7.650;2022-10-16T02:35:10;15.40;76.10
12704;DHT22;6416;52.182;7.650;2022-10-16T02:37:36;15.30;76.00
12704;DHT22;6416;52.182;7.650;2022-10-16T02:40:04;15.30;76.10
12704;DHT22;6416;52.182;7.650;2022-10-16T02:42:38;15.30;76.20
12704;DHT22;6416;52.182;7.650;2022-10-16T02:45:04;15.30;76.50
12704;DHT22;6416;52.182;7.650;2022-10-16T02:47:30;15.30;76.30
12704;DHT22;6416;52.182;7.650;2022-10-16T02:49:56;15.30;76.30
12704;DHT22;6416;52.182;7.650;2022-10-16T02:52:24;15.30;76.30
12704;DHT22;6416;52.182;7.650;2022-10-16T02:54:50;15.30;76.60
12704;DHT22;6416;52.182;7.650;2022-10-16T02:57:16;15.30;76.50
12704;DHT22;6416;52.182;7.650;2022-10-16T02:59:41;15.30;76.60
12704;DHT22;6416;52.182;7.650;2022-10-16T03:02:07;15.30;76.70
12704;DHT22;6416;52.182;7.650;2022-10-16T03:04:32;15.30;76.80
12704;DHT22;6416;52.182;7.650;2022-10-16T03:06:58;15.30;76.90
12704;DHT22;6416;52.182;7.650;2022-10-16T03:09:23;15.30;77.00
12704;DHT22;6416;52.182;7.650;2022-10-16T03:11:49;15.30;77.00
12704;DHT22;6416;52.182;7.650;2022-10-16T03:14:14;15.30;77.10
12704;DHT22;6416;52.182;7.650;2022-10-16T03:16:40;15.30;77.20
12704;DHT22;6416;52.182;7.650;2022-10-16T03:19:05;15.30;77.20
12704;DHT22;6416;52.182;7.650;2022-10-16T03:21:31;15.30;77.30
12704;DHT22;6416;52.182;7.650;2022-10-16T03:23:56;15.30;77.40
12704;DHT22;6416;52.182;7.650;2022-10-16T03:26:22;15.40;77.60
12704;DHT22;6416;52.182;7.650;2022-10-16T03:28:47;15.40;77.70
12704;DHT22;6416;52.182;7.650;2022-10-16T03:31:13;15.40;77.80
12704;DHT22;6416;52.182;7.650;2022-10-16T03:33:38;15.40;77.80
12704;DHT22;6416;52.182;7.650;2022-10-16T03:36:04;15.40;77.80
12704;DHT22;6416;52.182;7.650;2022-10-16T03:38:29;15.40;77.80
12704;DHT22;6416;52.182;7.650;2022-10-16T03:40:55;15.50;78.00
12704;DHT22;6416;52.182;7.650;2022-10-16T03:43:20;15.50;78.00
12704;DHT22;6416;52.182;7.650;2022-10-16T03:45:45;15.50;77.90
12704;DHT22;6416;52.182;7.650;2022-10-16T03:48:11;15.50;77.90
12704;DHT22;6416;52.182;7.650;2022-10-16T03:50:36;15.50;77.80
12704;DHT22;6416;52.182;7.650;2022-10-16T03:53:02;15.50;77.70
12704;DHT22;6416;52.182;7.650;2022-10-16T03:55:28;15.50;77.60
12704;DHT22;6416;52.182;7.650;2022-10-16T03:57:53;15.50;77.60
12704;DHT22;6416;52.182;7.650;2022-10-16T04:00:19;15.50;78.30
12704;DHT22;6416;52.182;7.650;2022-10-16T04:02:44;15.50;77.60
12704;DHT22;6416;52.182;7.650;2022-10-16T04:05:10;15.50;77.50
12704;DHT22;6416;52.182;7.650;2022-10-16T04:07:35;15.50;77.50
12704;DHT22;6416;52.182;7.650;2022-10-16T04:10:01;15.60;77.70
12704;DHT22;6416;52.182;7.650;2022-10-16T04:12:27;15.60;77.60
12704;DHT22;6416;52.182;7.650;2022-10-16T04:14:52;15.50;77.60
12704;DHT22;6416;52.182;7.650;2022-10-16T04:17:17;15.50;77.50
12704;DHT22;6416;52.182;7.650;2022-10-16T04:19:43;15.50;77.50
12704;DHT22;6416;52.182;7.650;2022-10-16T04:22:08;15.50;77.60
12704;DHT22;6416;52.182;7.650;2022-10-16T04:24:34;15.50;77.60
12704;DHT22;6416;52.182;7.650;2022-10-16T04:26:59;15.50;77.60
12704;DHT22;6416;52.182;7.650;2022-10-16T04:29:25;15.50;77.60
12704;DHT22;6416;52.182;7.650;2022-10-16T04:31:50;15.50;77.70
12704;DHT22;6416;52.182;7.650;2022-10-16T04:34:16;15.60;77.70
12704;DHT22;6416;52.182;7.650;2022-10-16T04:36:41;15.50;77.60
12704;DHT22;6416;52.182;7.650;2022-10-16T04:39:07;15.50;77.60
12704;DHT22;6416;52.182;7.650;2022-10-16T04:41:32;15.50;77.70
12704;DHT22;6416;52.182;7.650;2022-10-16T04:43:58;15.50;77.50
12704;DHT22;6416;52.182;7.650;2022-10-16T04:46:23;15.50;77.50
12704;DHT22;6416;52.182;7.650;2022-10-16T04:48:49;15.50;77.50
12704;DHT22;6416;52.182;7.650;2022-10-16T04:51:14;15.50;77.50
12704;DHT22;6416;52.182;7.650;2022-10-16T04:53:40;15.50;77.60
12704;DHT22;6416;52.182;7.650;2022-10-16T04:56:05;15.50;77.60
12704;DHT22;6416;52.182;7.650;2022-10-16T04:58:31;15.50;77.60
12704;DHT22;6416;52.182;7.650;2022-10-16T05:00:56;15.50;77.60
12704;DHT22;6416;52.182;7.650;2022-10-16T05:03:22;15.50;77.60
12704;DHT22;6416;52.182;7.650;2022-10-16T05:05:47;15.50;77.60
12704;DHT22;6416;52.182;7.650;2022-10-16T05:08:14;15.50;77.60
12704;DHT22;6416;52.182;7.650;2022-10-16T05:10:42;15.50;77.60
12704;DHT22;6416;52.182;7.650;2022-10-16T05:13:07;15.50;77.60
12704;DHT22;6416;52.182;7.650;2022-10-16T05:15:33;15.50;77.60
12704;DHT22;6416;52.182;7.650;2022-10-16T05:17:58;15.50;77.60
12704;DHT22;6416;52.182;7.650;2022-10-16T05:20:24;15.50;77.50
12704;DHT22;6416;52.182;7.650;2022-10-16T05:22:49;15.50;77.50
12704;DHT22;6416;52.182;7.650;2022-10-16T05:25:15;15.50;77.60
12704;DHT22;6416;52.182;7.650;2022-10-16T05:27:40;15.50;77.60
12704;DHT22;6416;52.182;7.650;2022-10-16T05:30:06;15.50;77.60
12704;DHT22;6416;52.182;7.650;2022-10-16T05:32:32;15.50;77.60
12704;DHT22;6416;52.182;7.650;2022-10-16T05:34:57;15.50;77.60
12704;DHT22;6416;52.182;7.650;2022-10-16T05:37:23;15.50;77.60
12704;DHT22;6416;52.182;7.650;2022-10-16T05:39:48;15.50;77.60
12704;DHT22;6416;52.182;7.650;2022-10-16T05:42:14;15.40;77.50
12704;DHT22;6416;52.182;7.650;2022-10-16T05:44:39;15.40;77.40
12704;DHT22;6416;52.182;7.650;2022-10-16T05:47:05;15.40;77.50
12704;DHT22;6416;52.182;7.650;2022-10-16T05:49:30;15.40;77.50
12704;DHT22;6416;52.182;7.650;2022-10-16T05:51:56;15.40;77.50
12704;DHT22;6416;52.182;7.650;2022-10-16T05:54:21;15.40;77.50
12704;DHT22;6416;52.182;7.650;2022-10-16T05:56:47;15.40;77.50
12704;DHT22;6416;52.182;7.650;2022-10-16T05:59:12;15.40;77.50
12704;DHT22;6416;52.182;7.650;2022-10-16T06:01:38;15.40;77.60
12704;DHT22;6416;52.182;7.650;2022-10-16T06:04:03;15.40;77.50
12704;DHT22;6416;52.182;7.650;2022-10-16T06:06:29;15.30;77.40
12704;DHT22;6416;52.182;7.650;2022-10-16T06:08:55;15.30;77.40
12704;DHT22;6416;52.182;7.650;2022-10-16T06:11:24;15.30;77.50
12704;DHT22;6416;52.182;7.650;2022-10-16T06:13:53;15.30;77.50
12704;DHT22;6416;52.182;7.650;2022-10-16T06:16:19;15.30;77.60
12704;DHT22;6416;52.182;7.650;2022-10-16T06:18:45;15.30;77.70
12704;DHT22;6416;52.182;7.650;2022-10-16T06:21:18;15.30;77.70
12704;DHT22;6416;52.182;7.650;2022-10-16T06:23:44;15.30;77.90
12704;DHT22;6416;52.182;7.650;2022-10-16T06:26:11;15.40;77.90
12704;DHT22;6416;52.182;7.650;2022-10-16T06:28:38;15.40;77.90
12704;DHT22;6416;52.182;7.650;2022-10-16T06:31:05;15.40;78.00
12704;DHT22;6416;52.182;7.650;2022-10-16T06:33:31;15.40;78.20
12704;DHT22;6416;52.182;7.650;2022-10-16T06:36:04;15.40;78.20
12704;DHT22;6416;52.182;7.650;2022-10-16T06:38:31;15.50;78.50
12704;DHT22;6416;52.182;7.650;2022-10-16T06:40:56;15.50;78.30
12704;DHT22;6416;52.182;7.650;2022-10-16T06:43:22;15.60;78.40
12704;DHT22;6416;52.182;7.650;2022-10-16T06:45:55;15.60;78.30
12704;DHT22;6416;52.182;7.650;2022-10-16T06:48:21;15.60;78.30
12704;DHT22;6416;52.182;7.650;2022-10-16T06:51:06;15.70;78.20
12704;DHT22;6416;52.182;7.650;2022-10-16T06:53:33;15.70;78.30
12704;DHT22;6416;52.182;7.650;2022-10-16T06:56:14;15.70;78.00
12704;DHT22;6416;52.182;7.650;2022-10-16T06:58:40;15.70;78.10
12704;DHT22;6416;52.182;7.650;2022-10-16T07:01:06;15.70;77.80
12704;DHT22;6416;52.182;7.650;2022-10-16T07:03:32;15.70;77.80
12704;DHT22;6416;52.182;7.650;2022-10-16T07:06:02;15.70;77.70
12704;DHT22;6416;52.182;7.650;2022-10-16T07:08:28;15.80;77.80
12704;DHT22;6416;52.182;7.650;2022-10-16T07:11:12;15.80;77.60
12704;DHT22;6416;52.182;7.650;2022-10-16T07:13:39;15.70;77.60
12704;DHT22;6416;52.182;7.650;2022-10-16T07:16:16;15.70;77.50
12704;DHT22;6416;52.182;7.650;2022-10-16T07:18:43;15.70;77.70
12704;DHT22;6416;52.182;7.650;2022-10-16T07:21:13;15.70;77.50
12704;DHT22;6416;52.182;7.650;2022-10-16T07:23:40;15.70;77.60
12704;DHT22;6416;52.182;7.650;2022-10-16T07:26:06;15.70;77.70
12704;DHT22;6416;52.182;7.650;2022-10-16T07:28:32;15.80;78.30
12704;DHT22;6416;52.182;7.650;2022-10-16T07:31:03;16.00;79.90
12704;DHT22;6416;52.182;7.650;2022-10-16T07:33:29;16.20;80.90
12704;DHT22;6416;52.182;7.650;2022-10-16T07:35:55;16.60;82.20
12704;DHT22;6416;52.182;7.650;2022-10-16T07:38:21;16.90;82.00
12704;DHT22;6416;52.182;7.650;2022-10-16T07:40:47;17.30;81.70
12704;DHT22;6416;52.182;7.650;2022-10-16T07:43:13;17.80;81.80
12704;DHT22;6416;52.182;7.650;2022-10-16T07:45:48;18.30;80.90
12704;DHT22;6416;52.182;7.650;2022-10-16T07:48:14;18.70;79.70
12704;DHT22;6416;52.182;7.650;2022-10-16T07:50:39;19.20;80.70
12704;DHT22;6416;52.182;7.650;2022-10-16T07:53:05;19.70;80.40
12704;DHT22;6416;52.182;7.650;2022-10-16T07:55:30;20.20;79.80
12704;DHT22;6416;52.182;7.650;2022-10-16T07:57:56;20.60;78.90
12704;DHT22;6416;52.182;7.650;2022-10-16T08:00:21;21.10;78.20
12704;DHT22;6416;52.182;7.650;2022-10-16T08:02:46;21.50;77.50
12704;DHT22;6416;52.182;7.650;2022-10-16T08:05:12;21.90;76.50
12704;DHT22;6416;52.182;7.650;2022-10-16T08:07:38;22.30;76.00
12704;DHT22;6416;52.182;7.650;2022-10-16T08:10:03;22.80;75.40
12704;DHT22;6416;52.182;7.650;2022-10-16T08:12:29;23.20;74.90
12704;DHT22;6416;52.182;7.650;2022-10-16T08:14:54;23.50;74.00
12704;DHT22;6416;52.182;7.650;2022-10-16T08:17:20;23.90;73.10
12704;DHT22;6416;52.182;7.650;2022-10-16T08:19:48;24.30;72.40
12704;DHT22;6416;52.182;7.650;2022-10-16T08:22:14;24.60;70.80
12704;DHT22;6416;52.182;7.650;2022-10-16T08:24:40;24.90;70.30
12704;DHT22;6416;52.182;7.650;2022-10-16T08:27:05;25.20;69.80
12704;DHT22;6416;52.182;7.650;2022-10-16T08:29:31;25.50;68.50
12704;DHT22;6416;52.182;7.650;2022-10-16T08:31:56;25.80;69.30
12704;DHT22;6416;52.182;7.650;2022-10-16T08:34:22;26.10;68.30
12704;DHT22;6416;52.182;7.650;2022-10-16T08:36:47;26.40;68.10
12704;DHT22;6416;52.182;7.650;2022-10-16T08:39:13;26.70;67.30
12704;DHT22;6416;52.182;7.650;2022-10-16T08:42:04;27.10;66.20
12704;DHT22;6416;52.182;7.650;2022-10-16T08:44:43;27.40;64.20
12704;DHT22;6416;52.182;7.650;2022-10-16T08:50:29;27.90;62.60
12704;DHT22;6416;52.182;7.650;2022-10-16T08:52:55;28.30;60.00
12704;DHT22;6416;52.182;7.650;2022-10-16T08:57:46;28.60;61.90
12704;DHT22;6416;52.182;7.650;2022-10-16T09:00:13;28.90;62.00
12704;DHT22;6416;52.182;7.650;2022-10-16T09:02:45;29.10;59.10
12704;DHT22;6416;52.182;7.650;2022-10-16T09:05:45;29.40;59.60
12704;DHT22;6416;52.182;7.650;2022-10-16T09:11:06;30.00;58.40
12704;DHT22;6416;52.182;7.650;2022-10-16T09:13:43;30.20;55.90
12704;DHT22;6416;52.182;7.650;2022-10-16T09:18:55;30.50;54.00
12704;DHT22;6416;52.182;7.650;2022-10-16T09:21:26;30.60;53.40
12704;DHT22;6416;52.182;7.650;2022-10-16T09:23:54;30.80;54.70
12704;DHT22;6416;52.182;7.650;2022-10-16T09:26:22;30.90;55.40
12704;DHT22;6416;52.182;7.650;2022-10-16T09:28:47;31.10;55.10
12704;DHT22;6416;52.182;7.650;2022-10-16T09:31:19;31.30;55.30
12704;DHT22;6416;52.182;7.650;2022-10-16T09:33:51;31.60;53.60
12704;DHT22;6416;52.182;7.650;2022-10-16T09:36:19;32.00;54.40
12704;DHT22;6416;52.182;7.650;2022-10-16T09:38:45;32.30;53.60
12704;DHT22;6416;52.182;7.650;2022-10-16T09:41:22;32.30;51.30
12704;DHT22;6416;52.182;7.650;2022-10-16T09:43:54;32.20;48.50
12704;DHT22;6416;52.182;7.650;2022-10-16T09:48:57;31.90;49.20
12704;DHT22;6416;52.182;7.650;2022-10-16T09:51:31;31.60;48.30
12704;DHT22;6416;52.182;7.650;2022-10-16T09:54:11;31.30;47.50
12704;DHT22;6416;52.182;7.650;2022-10-16T09:56:38;31.10;47.90
12704;DHT22;6416;52.182;7.650;2022-10-16T10:01:39;31.10;49.30
12704;DHT22;6416;52.182;7.650;2022-10-16T10:04:05;31.40;51.10
12704;DHT22;6416;52.182;7.650;2022-10-16T10:06:34;31.70;51.60
12704;DHT22;6416;52.182;7.650;2022-10-16T10:11:42;32.50;47.60
12704;DHT22;6416;52.182;7.650;2022-10-16T10:14:22;32.80;49.50
12704;DHT22;6416;52.182;7.650;2022-10-16T10:16:49;33.10;47.80
12704;DHT22;6416;52.182;7.650;2022-10-16T10:19:23;33.10;47.40
12704;DHT22;6416;52.182;7.650;2022-10-16T10:21:49;33.20;46.10
12704;DHT22;6416;52.182;7.650;2022-10-16T10:24:17;33.40;46.90
12704;DHT22;6416;52.182;7.650;2022-10-16T10:26:57;33.50;46.80
12704;DHT22;6416;52.182;7.650;2022-10-16T10:29:45;33.70;44.70
12704;DHT22;6416;52.182;7.650;2022-10-16T10:32:28;33.90;43.80
12704;DHT22;6416;52.182;7.650;2022-10-16T10:35:14;34.00;43.90
12704;DHT22;6416;52.182;7.650;2022-10-16T10:40:46;34.40;43.40
12704;DHT22;6416;52.182;7.650;2022-10-16T10:43:39;34.60;45.30
12704;DHT22;6416;52.182;7.650;2022-10-16T10:46:12;34.70;43.10
12704;DHT22;6416;52.182;7.650;2022-10-16T10:49:19;34.50;42.70
12704;DHT22;6416;52.182;7.650;2022-10-16T10:52:49;34.30;41.80
12704;DHT22;6416;52.182;7.650;2022-10-16T11:06:30;34.90;41.10
12704;DHT22;6416;52.182;7.650;2022-10-16T11:09:10;35.00;41.00
12704;DHT22;6416;52.182;7.650;2022-10-16T11:11:44;35.00;40.40
12704;DHT22;6416;52.182;7.650;2022-10-16T11:14:26;35.10;42.40
12704;DHT22;6416;52.182;7.650;2022-10-16T11:17:05;35.10;40.20
12704;DHT22;6416;52.182;7.650;2022-10-16T11:22:50;35.10;39.60
12704;DHT22;6416;52.182;7.650;2022-10-16T11:25:20;35.00;39.10
12704;DHT22;6416;52.182;7.650;2022-10-16T11:30:29;35.00;39.70
12704;DHT22;6416;52.182;7.650;2022-10-16T11:35:42;35.50;41.00
12704;DHT22;6416;52.182;7.650;2022-10-16T11:44:06;35.20;36.30
12704;DHT22;6416;52.182;7.650;2022-10-16T11:46:36;34.90;36.80
12704;DHT22;6416;52.182;7.650;2022-10-16T11:49:10;34.60;37.90
12704;DHT22;6416;52.182;7.650;2022-10-16T11:54:37;34.50;38.70
12704;DHT22;6416;52.182;7.650;2022-10-16T11:57:45;34.70;38.20
12704;DHT22;6416;52.182;7.650;2022-10-16T12:05:48;35.30;37.70
12704;DHT22;6416;52.182;7.650;2022-10-16T12:08:16;35.30;37.80
12704;DHT22;6416;52.182;7.650;2022-10-16T12:10:44;35.20;37.30
12704;DHT22;6416;52.182;7.650;2022-10-16T12:18:30;34.20;36.60
12704;DHT22;6416;52.182;7.650;2022-10-16T12:21:00;34.00;37.90
12704;DHT22;6416;52.182;7.650;2022-10-16T12:23:25;34.00;38.50
12704;DHT22;6416;52.182;7.650;2022-10-16T12:25:55;34.20;38.90
12704;DHT22;6416;52.182;7.650;2022-10-16T12:28:27;34.30;37.70
12704;DHT22;6416;52.182;7.650;2022-10-16T12:31:12;34.30;36.50
12704;DHT22;6416;52.182;7.650;2022-10-16T12:33:40;34.30;37.20
12704;DHT22;6416;52.182;7.650;2022-10-16T12:36:30;34.10;36.80
12704;DHT22;6416;52.182;7.650;2022-10-16T12:38:56;34.10;36.50
12704;DHT22;6416;52.182;7.650;2022-10-16T12:41:27;34.10;37.30
12704;DHT22;6416;52.182;7.650;2022-10-16T12:43:52;34.20;37.00
12704;DHT22;6416;52.182;7.650;2022-10-16T12:48:44;34.30;36.30
12704;DHT22;6416;52.182;7.650;2022-10-16T12:51:23;34.30;35.90
12704;DHT22;6416;52.182;7.650;2022-10-16T12:54:19;34.20;35.70
12704;DHT22;6416;52.182;7.650;2022-10-16T13:07:47;34.70;34.80
12704;DHT22;6416;52.182;7.650;2022-10-16T13:19:18;33.50;34.40
12704;DHT22;6416;52.182;7.650;2022-10-16T13:21:57;33.00;34.60
12704;DHT22;6416;52.182;7.650;2022-10-16T13:27:35;32.10;34.40
12704;DHT22;6416;52.182;7.650;2022-10-16T13:30:20;31.60;34.50
12704;DHT22;6416;52.182;7.650;2022-10-16T13:32:50;31.20;35.30
12704;DHT22;6416;52.182;7.650;2022-10-16T13:35:26;30.70;35.60
12704;DHT22;6416;52.182;7.650;2022-10-16T13:38:03;30.40;35.90
12704;DHT22;6416;52.182;7.650;2022-10-16T13:40:29;30.00;36.00
12704;DHT22;6416;52.182;7.650;2022-10-16T13:42:54;29.70;36.30
12704;DHT22;6416;52.182;7.650;2022-10-16T13:45:22;29.40;36.40
12704;DHT22;6416;52.182;7.650;2022-10-16T13:47:48;29.10;36.60
12704;DHT22;6416;52.182;7.650;2022-10-16T13:50:16;28.80;36.80
12704;DHT22;6416;52.182;7.650;2022-10-16T13:52:42;28.50;37.10
12704;DHT22;6416;52.182;7.650;2022-10-16T13:55:16;28.30;37.30
12704;DHT22;6416;52.182;7.650;2022-10-16T13:57:42;28.10;37.60
12704;DHT22;6416;52.182;7.650;2022-10-16T14:02:44;27.60;38.30
12704;DHT22;6416;52.182;7.650;2022-10-16T14:05:10;27.40;38.40
12704;DHT22;6416;52.182;7.650;2022-10-16T14:07:36;27.20;38.80
12704;DHT22;6416;52.182;7.650;2022-10-16T14:10:06;27.00;39.10
12704;DHT22;6416;52.182;7.650;2022-10-16T14:12:32;26.80;39.40
12704;DHT22;6416;52.182;7.650;2022-10-16T14:14:59;26.70;39.70
12704;DHT22;6416;52.182;7.650;2022-10-16T14:17:27;26.50;40.20
12704;DHT22;6416;52.182;7.650;2022-10-16T14:19:58;26.40;40.50
12704;DHT22;6416;52.182;7.650;2022-10-16T14:22:42;26.30;40.60
12704;DHT22;6416;52.182;7.650;2022-10-16T14:25:25;26.10;41.10
12704;DHT22;6416;52.182;7.650;2022-10-16T14:28:23;26.10;41.50
12704;DHT22;6416;52.182;7.650;2022-10-16T14:30:57;26.00;41.60
12704;DHT22;6416;52.182;7.650;2022-10-16T14:33:31;25.90;41.60
12704;DHT22;6416;52.182;7.650;2022-10-16T14:36:27;25.70;41.50
12704;DHT22;6416;52.182;7.650;2022-10-16T14:39:17;25.70;42.10
12704;DHT22;6416;52.182;7.650;2022-10-16T14:41:46;25.60;42.20
12704;DHT22;6416;52.182;7.650;2022-10-16T14:44:13;25.40;41.90
12704;DHT22;6416;52.182;7.650;2022-10-16T14:46:41;25.40;42.10
12704;DHT22;6416;52.182;7.650;2022-10-16T14:51:37;25.20;42.80
12704;DHT22;6416;52.182;7.650;2022-10-16T14:54:03;25.10;42.80
12704;DHT22;6416;52.182;7.650;2022-10-16T14:56:44;25.00;42.80
12704;DHT22;6416;52.182;7.650;2022-10-16T14:59:17;24.90;42.90
12704;DHT22;6416;52.182;7.650;2022-10-16T15:01:44;24.90;43.20
12704;DHT22;6416;52.182;7.650;2022-10-16T15:04:11;24.80;43.10
12704;DHT22;6416;52.182;7.650;2022-10-16T15:06:37;24.70;43.40
12704;DHT22;6416;52.182;7.650;2022-10-16T15:09:03;24.60;43.60
12704;DHT22;6416;52.182;7.650;2022-10-16T15:11:28;24.60;43.80
12704;DHT22;6416;52.182;7.650;2022-10-16T15:13:56;24.50;43.90
12704;DHT22;6416;52.182;7.650;2022-10-16T15:16:21;24.50;44.10
12704;DHT22;6416;52.182;7.650;2022-10-16T15:18:47;24.50;44.20
12704;DHT22;6416;52.182;7.650;2022-10-16T15:21:23;24.40;44.30
12704;DHT22;6416;52.182;7.650;2022-10-16T15:23:49;24.40;44.50
12704;DHT22;6416;52.182;7.650;2022-10-16T15:26:15;24.40;44.30
12704;DHT22;6416;52.182;7.650;2022-10-16T15:28:40;24.30;44.50
12704;DHT22;6416;52.182;7.650;2022-10-16T15:31:06;24.30;44.70
12704;DHT22;6416;52.182;7.650;2022-10-16T15:33:31;24.20;44.80
12704;DHT22;6416;52.182;7.650;2022-10-16T15:35:57;24.20;45.10
12704;DHT22;6416;52.182;7.650;2022-10-16T15:38:22;24.20;45.30
12704;DHT22;6416;52.182;7.650;2022-10-16T15:40:48;24.10;45.40
12704;DHT22;6416;52.182;7.650;2022-10-16T15:43:14;24.10;45.70
12704;DHT22;6416;52.182;7.650;2022-10-16T15:45:40;24.10;45.80
12704;DHT22;6416;52.182;7.650;2022-10-16T15:48:08;24.10;46.10
12704;DHT22;6416;52.182;7.650;2022-10-16T15:50:37;24.10;46.20
12704;DHT22;6416;52.182;7.650;2022-10-16T15:53:03;24.00;46.30
12704;DHT22;6416;52.182;7.650;2022-10-16T15:55:28;24.00;46.40
12704;DHT22;6416;52.182;7.650;2022-10-16T15:57:54;24.00;46.50
12704;DHT22;6416;52.182;7.650;2022-10-16T16:00:20;24.00;46.60
12704;DHT22;6416;52.182;7.650;2022-10-16T16:02:49;24.00;46.70
12704;DHT22;6416;52.182;7.650;2022-10-16T16:05:15;23.90;47.00
12704;DHT22;6416;52.182;7.650;2022-10-16T16:07:41;24.00;46.90
12704;DHT22;6416;52.182;7.650;2022-10-16T16:10:09;23.90;46.90
12704;DHT22;6416;52.182;7.650;2022-10-16T16:12:35;23.90;47.20
12704;DHT22;6416;52.182;7.650;2022-10-16T16:15:01;23.80;47.20
12704;DHT22;6416;52.182;7.650;2022-10-16T16:17:27;23.80;47.40
12704;DHT22;6416;52.182;7.650;2022-10-16T16:19:52;23.80;47.40
12704;DHT22;6416;52.182;7.650;2022-10-16T16:22:17;23.70;47.50
12704;DHT22;6416;52.182;7.650;2022-10-16T16:24:43;23.60;47.40
12704;DHT22;6416;52.182;7.650;2022-10-16T16:27:09;23.60;47.50
12704;DHT22;6416;52.182;7.650;2022-10-16T16:29:35;23.50;47.60
12704;DHT22;6416;52.182;7.650;2022-10-16T16:32:01;23.40;47.70
12704;DHT22;6416;52.182;7.650;2022-10-16T16:34:27;23.30;47.70
12704;DHT22;6416;52.182;7.650;2022-10-16T16:36:54;23.20;47.80
12704;DHT22;6416;52.182;7.650;2022-10-16T16:39:20;23.10;48.00
12704;DHT22;6416;52.182;7.650;2022-10-16T16:41:45;23.00;48.10
12704;DHT22;6416;52.182;7.650;2022-10-16T16:44:11;22.90;48.20
12704;DHT22;6416;52.182;7.650;2022-10-16T16:46:37;22.90;48.40
12704;DHT22;6416;52.182;7.650;2022-10-16T16:49:03;22.80;48.60
12704;DHT22;6416;52.182;7.650;2022-10-16T16:51:29;22.70;48.80
12704;DHT22;6416;52.182;7.650;2022-10-16T16:53:55;22.70;49.00
12704;DHT22;6416;52.182;7.650;2022-10-16T16:56:22;22.60;49.10
12704;DHT22;6416;52.182;7.650;2022-10-16T16:58:49;22.60;49.30
12704;DHT22;6416;52.182;7.650;2022-10-16T17:01:15;22.60;49.50
12704;DHT22;6416;52.182;7.650;2022-10-16T17:03:42;22.50;49.50
12704;DHT22;6416;52.182;7.650;2022-10-16T17:06:09;22.50;49.70
12704;DHT22;6416;52.182;7.650;2022-10-16T17:08:35;22.40;49.70
12704;DHT22;6416;52.182;7.650;2022-10-16T17:11:01;22.40;49.70
12704;DHT22;6416;52.182;7.650;2022-10-16T17:13:30;22.40;50.00
12704;DHT22;6416;52.182;7.650;2022-10-16T17:15:56;22.40;50.20
12704;DHT22;6416;52.182;7.650;2022-10-16T17:18:23;22.30;50.00
12704;DHT22;6416;52.182;7.650;2022-10-16T17:20:49;22.30;50.10
12704;DHT22;6416;52.182;7.650;2022-10-16T17:23:16;22.20;50.10
12704;DHT22;6416;52.182;7.650;2022-10-16T17:25:42;22.10;50.20
12704;DHT22;6416;52.182;7.650;2022-10-16T17:28:09;22.10;50.30
12704;DHT22;6416;52.182;7.650;2022-10-16T17:30:35;22.10;50.50
12704;DHT22;6416;52.182;7.650;2022-10-16T17:33:01;22.00;50.40
12704;DHT22;6416;52.182;7.650;2022-10-16T17:35:27;21.90;50.50
12704;DHT22;6416;52.182;7.650;2022-10-16T17:37:53;21.90;50.60
12704;DHT22;6416;52.182;7.650;2022-10-16T17:40:19;21.90;50.80
12704;DHT22;6416;52.182;7.650;2022-10-16T17:42:44;21.80;50.80
12704;DHT22;6416;52.182;7.650;2022-10-16T17:45:10;21.70;50.80